createdAt,value
2023-01-20T00:00:15.686Z,2.83
2023-01-20T00:03:18.415Z,2.84
2023-01-20T00:06:28.731Z,2.81
2023-01-20T00:09:32.162Z,2.78
2023-01-20T00:12:34.819Z,2.79
2023-01-20T00:15:37.533Z,2.76
2023-01-20T00:18:41.335Z,2.72
2023-01-20T00:21:45.562Z,2.73
2023-01-20T00:24:48.198Z,2.74
2023-01-20T00:27:54.344Z,2.73
2023-01-20T00:30:59.232Z,2.75
2023-01-20T00:34:02.780Z,2.77
2023-01-20T00:37:09.814Z,2.77
2023-01-20T00:40:13.675Z,2.79
2023-01-20T00:43:16.432Z,2.80
2023-01-20T00:46:26.663Z,2.79
2023-01-20T00:49:32.346Z,2.79
2023-01-20T00:52:38.110Z,2.78
2023-01-20T00:55:40.791Z,2.80
2023-01-20T00:58:45.539Z,2.78
2023-01-20T01:02:03.874Z,2.78
2023-01-20T01:05:12.721Z,2.73
2023-01-20T01:08:19.819Z,2.69
2023-01-20T01:11:24.790Z,2.69
2023-01-20T01:14:31.956Z,2.67
2023-01-20T01:17:39.284Z,2.61
2023-01-20T01:20:46.946Z,2.62
2023-01-20T01:23:51.849Z,2.63
2023-01-20T01:26:54.864Z,2.67
2023-01-20T01:29:57.480Z,2.68
2023-01-20T01:33:00.498Z,2.69
2023-01-20T01:36:04.794Z,2.73
2023-01-20T01:39:08.899Z,2.75
2023-01-20T01:42:16.214Z,2.72
2023-01-20T01:45:27.945Z,2.75
2023-01-20T01:48:34.728Z,2.76
2023-01-20T01:51:42.332Z,2.75
2023-01-20T01:54:46.499Z,2.75
2023-01-20T01:57:50.264Z,2.72
2023-01-20T02:00:57.847Z,2.68
2023-01-20T02:04:06.590Z,2.69
2023-01-20T02:07:12.778Z,2.69
2023-01-20T02:10:19.471Z,2.67
2023-01-20T02:13:22.287Z,2.67
2023-01-20T02:16:43.951Z,2.65
2023-01-20T02:20:26.659Z,2.63
2023-01-20T02:23:55.804Z,2.65
2023-01-20T02:27:09.414Z,2.69
2023-01-20T02:30:32.921Z,2.67
2023-01-20T02:33:42.107Z,2.64
2023-01-20T02:36:48.956Z,2.65
2023-01-20T02:39:59.841Z,2.66
2023-01-20T02:46:34.842Z,2.64
2023-01-20T02:49:42.151Z,2.62
2023-01-20T02:52:55.699Z,2.59
2023-01-20T02:55:58.555Z,2.61
2023-01-20T02:59:05.361Z,2.59
2023-01-20T03:02:11.935Z,2.61
2023-01-20T03:05:22.567Z,2.51
2023-01-20T03:08:27.991Z,2.56
2023-01-20T03:11:33.067Z,2.55
2023-01-20T03:14:37.013Z,2.54
2023-01-20T03:17:40.344Z,2.53
2023-01-20T03:20:44.469Z,2.52
2023-01-20T03:23:49.716Z,2.54
2023-01-20T03:26:53.270Z,2.60
2023-01-20T03:29:55.965Z,2.59
2023-01-20T03:32:58.826Z,2.61
2023-01-20T03:36:03.323Z,2.64
2023-01-20T03:39:06.732Z,2.67
2023-01-20T03:42:13.943Z,2.65
2023-01-20T03:45:25.469Z,2.60
2023-01-20T03:48:42.123Z,2.63
2023-01-20T03:51:58.048Z,2.63
2023-01-20T03:55:05.917Z,2.64
2023-01-20T03:58:12.767Z,2.66
2023-01-20T04:01:22.077Z,2.62
2023-01-20T04:04:29.903Z,2.58
2023-01-20T04:07:34.247Z,2.59
2023-01-20T04:10:41.954Z,2.58
2023-01-20T04:13:44.698Z,2.55
2023-01-20T04:16:53.261Z,2.56
2023-01-20T04:20:07.303Z,2.56
2023-01-20T04:23:18.696Z,2.55
2023-01-20T04:26:21.363Z,2.55
2023-01-20T04:29:24.061Z,2.53
2023-01-20T04:32:26.846Z,2.52
2023-01-20T04:35:31.660Z,2.48
2023-01-20T04:38:35.650Z,2.40
2023-01-20T04:41:38.471Z,2.35
2023-01-20T04:44:41.195Z,2.29
2023-01-20T04:47:44.155Z,2.23
2023-01-20T04:50:46.878Z,2.25
2023-01-20T04:53:57.846Z,2.24
2023-01-20T04:57:00.499Z,2.25
2023-01-20T05:00:06.533Z,2.27
2023-01-20T05:03:09.261Z,2.24
2023-01-20T05:06:12.668Z,2.22
2023-01-20T05:09:17.487Z,2.18
2023-01-20T05:12:22.537Z,2.17
2023-01-20T05:15:25.173Z,2.18
2023-01-20T05:18:27.823Z,2.17
2023-01-20T05:21:30.527Z,2.11
2023-01-20T05:24:34.601Z,2.03
2023-01-20T05:27:37.764Z,1.95
2023-01-20T05:30:43.012Z,1.83
2023-01-20T05:33:45.823Z,1.81
2023-01-20T05:36:52.340Z,1.83
2023-01-20T05:39:56.421Z,1.88
2023-01-20T05:43:00.182Z,1.94
2023-01-20T05:46:07.459Z,1.99
2023-01-20T05:49:11.473Z,2.07
2023-01-20T05:52:14.160Z,2.07
2023-01-20T05:55:18.238Z,2.12
2023-01-20T05:58:23.874Z,2.15
2023-01-20T06:01:26.953Z,2.19
2023-01-20T06:04:29.753Z,2.23
2023-01-20T06:07:34.545Z,2.23
2023-01-20T06:10:38.590Z,2.24
2023-01-20T06:13:43.576Z,2.27
2023-01-20T06:16:46.243Z,2.30
2023-01-20T06:20:14.198Z,2.26
2023-01-20T06:23:17.552Z,2.34
2023-01-20T06:26:21.618Z,2.35
2023-01-20T06:29:24.321Z,2.37
2023-01-20T06:32:27.449Z,2.39
2023-01-20T06:35:30.120Z,2.40
2023-01-20T06:38:35.064Z,2.41
2023-01-20T06:41:39.053Z,2.39
2023-01-20T06:44:41.729Z,2.38
2023-01-20T06:47:44.399Z,2.40
2023-01-20T06:50:47.028Z,2.37
2023-01-20T06:53:49.745Z,2.34
2023-01-20T06:56:53.786Z,2.36
2023-01-20T06:59:58.915Z,2.37
2023-01-20T07:03:02.071Z,2.39
2023-01-20T07:06:08.548Z,2.29
2023-01-20T07:09:13.679Z,2.34
2023-01-20T07:12:17.849Z,2.36
2023-01-20T07:15:20.620Z,2.40
2023-01-20T07:18:29.561Z,2.41
2023-01-20T07:21:32.459Z,2.40
2023-01-20T07:24:40.361Z,2.40
2023-01-20T07:27:44.376Z,2.42
2023-01-20T07:30:53.438Z,2.43
2023-01-20T07:33:56.825Z,2.44
2023-01-20T07:37:01.906Z,2.46
2023-01-20T07:40:07.387Z,2.45
2023-01-20T07:43:11.468Z,2.44
2023-01-20T07:46:14.877Z,2.44
2023-01-20T07:49:17.892Z,2.49
2023-01-20T07:52:20.872Z,2.44
2023-01-20T07:55:25.185Z,2.43
2023-01-20T07:58:29.985Z,2.35
2023-01-20T08:01:33.913Z,2.30
2023-01-20T08:04:40.717Z,2.35
2023-01-20T08:07:43.500Z,2.34
2023-01-20T08:10:49.024Z,2.36
2023-01-20T08:13:53.940Z,2.41
2023-01-20T08:16:56.644Z,2.47
2023-01-20T08:19:59.328Z,2.53
2023-01-20T08:23:02.007Z,2.60
2023-01-20T08:26:07.070Z,2.66
2023-01-20T08:29:11.295Z,2.77
2023-01-20T08:32:14.043Z,2.82
2023-01-20T08:35:19.579Z,2.80
2023-01-20T08:38:22.226Z,2.87
2023-01-20T08:41:27.684Z,2.88
2023-01-20T08:44:34.807Z,2.89
2023-01-20T08:47:39.846Z,2.90
2023-01-20T08:50:42.498Z,2.94
2023-01-20T08:53:45.719Z,2.95
2023-01-20T08:56:51.187Z,2.95
2023-01-20T08:59:55.821Z,3.11
2023-01-20T09:02:58.485Z,3.26
2023-01-20T09:06:03.357Z,3.28
2023-01-20T09:09:06.041Z,3.36
2023-01-20T09:12:09.190Z,3.48
2023-01-20T09:15:14.128Z,3.58
2023-01-20T09:18:17.497Z,3.68
2023-01-20T09:21:20.331Z,3.70
2023-01-20T09:24:23.352Z,3.73
2023-01-20T09:27:26.900Z,3.77
2023-01-20T09:30:31.164Z,3.78
2023-01-20T09:33:36.106Z,3.82
2023-01-20T09:36:46.802Z,3.84
2023-01-20T09:40:07.579Z,3.81
2023-01-20T09:43:42.814Z,3.85
2023-01-20T09:47:18.179Z,3.91
2023-01-20T09:50:50.284Z,3.86
2023-01-20T09:54:04.057Z,3.92
2023-01-20T09:57:09.136Z,3.97
2023-01-20T10:00:18.658Z,4.01
2023-01-20T10:03:36.903Z,4.04
2023-01-20T10:06:44.298Z,4.03
2023-01-20T10:10:04.531Z,4.08
2023-01-20T10:13:14.275Z,4.11
2023-01-20T10:16:28.373Z,4.03
2023-01-20T10:19:38.661Z,4.00
2023-01-20T10:22:49.967Z,4.02
2023-01-20T10:26:02.059Z,3.91
2023-01-20T10:29:12.803Z,3.95
2023-01-20T10:32:32.319Z,3.85
2023-01-20T10:35:40.119Z,3.71
2023-01-20T10:38:52.588Z,3.80
2023-01-20T10:42:03.350Z,3.83
2023-01-20T10:45:19.278Z,3.80
2023-01-20T10:48:38.231Z,3.88
2023-01-20T10:51:54.551Z,3.83
2023-01-20T10:55:06.155Z,3.83
2023-01-20T10:58:18.248Z,3.77
2023-01-20T11:01:22.172Z,3.82
2023-01-20T11:04:24.887Z,3.93
2023-01-20T11:07:30.149Z,3.99
2023-01-20T11:10:34.180Z,3.86
2023-01-20T11:13:36.855Z,3.79
2023-01-20T11:16:41.052Z,3.66
2023-01-20T11:19:53.086Z,3.45
2023-01-20T11:23:06.564Z,3.42
2023-01-20T11:26:25.595Z,3.58
2023-01-20T11:29:31.693Z,3.64
2023-01-20T11:32:36.687Z,3.63
2023-01-20T11:35:39.349Z,3.62
2023-01-20T11:38:49.163Z,3.58
2023-01-20T11:42:12.004Z,3.62
2023-01-20T11:45:27.495Z,3.56
2023-01-20T11:48:30.131Z,3.83
2023-01-20T11:51:32.728Z,3.83
2023-01-20T11:54:37.378Z,3.78
2023-01-20T11:57:44.667Z,3.84
2023-01-20T12:00:52.240Z,3.89
2023-01-20T12:04:35.032Z,3.95
2023-01-20T12:07:44.969Z,4.10
2023-01-20T12:10:50.714Z,4.26
2023-01-20T12:14:23.115Z,4.39
2023-01-20T12:17:58.591Z,4.46
2023-01-20T12:21:07.966Z,4.53
2023-01-20T12:24:19.566Z,4.67
2023-01-20T12:27:29.193Z,4.75
2023-01-20T12:30:56.902Z,4.75
2023-01-20T12:34:15.919Z,4.87
2023-01-20T12:37:32.560Z,4.94
2023-01-20T12:40:43.064Z,4.91
2023-01-20T12:43:59.777Z,4.94
2023-01-20T12:47:19.140Z,5.04
2023-01-20T12:50:35.576Z,5.06
2023-01-20T12:54:06.512Z,5.13
2023-01-20T12:57:22.199Z,4.75
2023-01-20T13:00:54.426Z,5.12
2023-01-20T13:04:24.593Z,5.06
2023-01-20T13:07:51.778Z,4.89
2023-01-20T13:11:08.668Z,4.81
2023-01-20T13:14:18.684Z,4.84
2023-01-20T13:17:29.076Z,4.89
2023-01-20T13:20:32.154Z,5.08
2023-01-20T13:23:37.780Z,5.37
2023-01-20T13:26:40.774Z,5.64
2023-01-20T13:29:57.490Z,5.89
2023-01-20T13:33:08.768Z,6.08
2023-01-20T13:36:18.160Z,6.09
2023-01-20T13:39:41.929Z,6.10
2023-01-20T13:42:50.539Z,6.14
2023-01-20T13:46:34.106Z,6.03
2023-01-20T13:49:50.630Z,5.97
2023-01-20T13:53:05.942Z,5.92
2023-01-20T13:56:25.538Z,5.87
2023-01-20T13:59:28.204Z,5.85
2023-01-20T14:02:37.385Z,5.86
2023-01-20T14:05:44.036Z,5.91
2023-01-20T14:08:51.656Z,5.94
2023-01-20T14:11:56.192Z,5.94
2023-01-20T14:14:59.712Z,5.90
2023-01-20T14:18:03.069Z,5.81
2023-01-20T14:21:19.970Z,5.71
2023-01-20T14:24:30.021Z,5.64
2023-01-20T14:27:35.613Z,5.58
2023-01-20T14:30:38.466Z,5.51
2023-01-20T14:33:49.270Z,5.42
2023-01-20T14:37:00.852Z,5.29
2023-01-20T14:40:20.538Z,5.22
2023-01-20T14:43:23.417Z,5.21
2023-01-20T14:46:30.026Z,5.20
2023-01-20T14:49:44.720Z,5.19
2023-01-20T14:52:49.014Z,5.14
2023-01-20T14:56:07.572Z,5.04
2023-01-20T14:59:19.877Z,4.95
2023-01-20T15:02:30.195Z,4.80
2023-01-20T15:05:34.683Z,4.69
2023-01-20T15:09:04.356Z,4.43
2023-01-20T15:12:35.507Z,4.44
2023-01-20T15:15:38.313Z,4.40
2023-01-20T15:18:41.521Z,4.32
2023-01-20T15:21:46.725Z,4.17
2023-01-20T15:24:51.955Z,4.02
2023-01-20T15:27:55.781Z,3.92
2023-01-20T15:31:00.231Z,3.84
2023-01-20T15:34:03.191Z,3.79
2023-01-20T15:37:12.545Z,3.71
2023-01-20T15:40:26.812Z,3.53
2023-01-20T15:43:29.612Z,3.41
2023-01-20T15:46:32.800Z,3.38
2023-01-20T15:49:35.731Z,3.36
2023-01-20T15:52:38.395Z,3.38
2023-01-20T15:55:47.226Z,3.25
2023-01-20T15:58:53.097Z,3.36
2023-01-20T16:01:55.816Z,3.38
2023-01-20T16:05:02.356Z,3.32
2023-01-20T16:08:13.206Z,3.41
2023-01-20T16:11:18.876Z,3.39
2023-01-20T16:14:21.734Z,3.18
2023-01-20T16:17:26.195Z,3.20
2023-01-20T16:20:30.904Z,3.20
2023-01-20T16:23:33.545Z,3.24
2023-01-20T16:26:37.556Z,3.30
2023-01-20T16:29:41.731Z,3.34
2023-01-20T16:32:46.210Z,3.37
2023-01-20T16:35:56.664Z,3.35
2023-01-20T16:38:59.500Z,3.40
2023-01-20T16:42:11.003Z,3.39
2023-01-20T16:45:24.367Z,3.41
2023-01-20T16:48:27.107Z,3.42
2023-01-20T16:51:31.357Z,3.49
2023-01-20T16:54:36.316Z,3.58
2023-01-20T16:57:44.491Z,3.60
2023-01-20T17:00:59.805Z,3.64
2023-01-20T17:04:07.771Z,3.69
2023-01-20T17:07:14.494Z,3.70
2023-01-20T17:10:19.165Z,3.71
2023-01-20T17:13:23.725Z,3.74
2023-01-20T17:16:31.812Z,3.73
2023-01-20T17:19:35.373Z,3.72
2023-01-20T17:22:39.840Z,3.80
2023-01-20T17:25:51.586Z,3.75
2023-01-20T17:29:02.470Z,3.66
2023-01-20T17:32:05.940Z,3.58
2023-01-20T17:35:08.995Z,3.52
2023-01-20T17:38:11.845Z,3.50
2023-01-20T17:41:15.421Z,3.55
2023-01-20T17:44:25.404Z,3.60
2023-01-20T17:47:29.977Z,3.61
2023-01-20T17:50:38.898Z,3.62
2023-01-20T17:53:44.709Z,3.50
2023-01-20T17:56:47.992Z,3.40
2023-01-20T17:59:52.252Z,3.28
2023-01-20T18:02:56.859Z,3.13
2023-01-20T18:06:03.426Z,3.16
2023-01-20T18:09:08.171Z,3.06
2023-01-20T18:12:10.933Z,2.97
2023-01-20T18:15:15.098Z,2.83
2023-01-20T18:18:17.953Z,2.76
2023-01-20T18:21:22.268Z,2.65
2023-01-20T18:24:24.937Z,2.72
2023-01-20T18:27:27.626Z,2.73
2023-01-20T18:30:32.033Z,2.78
2023-01-20T18:33:38.267Z,2.95
2023-01-20T18:36:44.987Z,2.95
2023-01-20T18:39:48.883Z,2.98
2023-01-20T18:42:51.692Z,2.84
2023-01-20T18:45:56.038Z,2.66
2023-01-20T18:48:58.795Z,2.52
2023-01-20T18:52:01.544Z,2.51
2023-01-20T18:55:04.510Z,2.60
2023-01-20T18:58:08.639Z,2.68
2023-01-20T19:01:18.486Z,2.68
2023-01-20T19:04:24.271Z,2.60
2023-01-20T19:07:27.142Z,2.46
2023-01-20T19:10:29.804Z,2.41
2023-01-20T19:13:33.327Z,2.40
2023-01-20T19:16:39.317Z,2.36
2023-01-20T19:19:49.545Z,2.31
2023-01-20T19:22:52.230Z,2.28
2023-01-20T19:26:03.429Z,2.34
2023-01-20T19:29:10.393Z,2.36
2023-01-20T19:32:15.352Z,2.34
2023-01-20T19:35:18.023Z,2.26
2023-01-20T19:38:20.684Z,2.28
2023-01-20T19:41:27.700Z,2.29
2023-01-20T19:44:30.533Z,2.32
2023-01-20T19:47:35.384Z,2.22
2023-01-20T19:50:38.470Z,2.24
2023-01-20T19:53:41.888Z,2.17
2023-01-20T19:56:44.674Z,2.17
2023-01-20T19:59:50.740Z,2.23
2023-01-20T20:02:55.305Z,2.41
2023-01-20T20:05:58.280Z,2.48
2023-01-20T20:09:03.269Z,2.52
2023-01-20T20:12:07.726Z,2.47
2023-01-20T20:15:11.069Z,2.43
2023-01-20T20:18:15.516Z,2.45
2023-01-20T20:21:18.315Z,2.46
2023-01-20T20:24:29.322Z,2.32
2023-01-20T20:27:31.941Z,2.31
2023-01-20T20:30:34.567Z,2.43
2023-01-20T20:33:38.807Z,2.35
2023-01-20T20:36:41.541Z,2.21
2023-01-20T20:39:44.357Z,2.27
2023-01-20T20:42:48.595Z,2.36
2023-01-20T20:45:51.456Z,2.19
2023-01-20T20:48:56.680Z,2.15
2023-01-20T20:51:59.331Z,2.36
2023-01-20T20:55:01.996Z,2.33
2023-01-20T20:58:04.918Z,2.29
2023-01-20T21:01:11.704Z,2.13
2023-01-20T21:04:15.677Z,2.11
2023-01-20T21:07:23.379Z,1.81
2023-01-20T21:10:26.066Z,2.12
2023-01-20T21:13:29.304Z,2.20
2023-01-20T21:16:31.977Z,2.13
2023-01-20T21:19:36.130Z,2.16
2023-01-20T21:22:39.197Z,2.29
2023-01-20T21:25:41.856Z,2.28
2023-01-20T21:28:44.901Z,2.16
2023-01-20T21:31:48.535Z,2.13
2023-01-20T21:34:55.306Z,2.22
2023-01-20T21:37:57.968Z,2.37
2023-01-20T21:41:08.273Z,2.30
2023-01-20T21:44:33.728Z,2.40
2023-01-20T21:47:36.431Z,2.35
2023-01-20T21:50:57.928Z,2.39
2023-01-20T21:54:00.531Z,2.43
2023-01-20T21:57:04.691Z,2.46
2023-01-20T22:00:10.554Z,2.51
2023-01-20T22:03:16.310Z,2.42
2023-01-20T22:06:20.283Z,2.40
2023-01-20T22:09:22.928Z,2.44
2023-01-20T22:12:25.832Z,2.36
2023-01-20T22:15:29.762Z,2.24
2023-01-20T22:18:32.740Z,2.20
2023-01-20T22:21:36.746Z,2.23
2023-01-20T22:24:39.449Z,2.19
2023-01-20T22:27:45.127Z,2.17
2023-01-20T22:30:47.920Z,2.17
2023-01-20T22:33:58.533Z,2.15
2023-01-20T22:37:02.596Z,2.09
2023-01-20T22:40:06.256Z,2.03
2023-01-20T22:43:08.920Z,2.01
2023-01-20T22:46:13.577Z,1.95
2023-01-20T22:49:16.267Z,1.98
2023-01-20T22:52:20.309Z,1.92
2023-01-20T22:55:25.374Z,1.88
2023-01-20T22:58:28.061Z,1.90
2023-01-20T23:01:32.764Z,1.97
2023-01-20T23:04:38.441Z,1.91
2023-01-20T23:07:44.714Z,2.01
2023-01-20T23:10:47.436Z,1.88
2023-01-20T23:13:50.566Z,1.89
2023-01-20T23:16:53.320Z,1.89
2023-01-20T23:19:56.565Z,1.91
2023-01-20T23:23:03.823Z,1.96
2023-01-20T23:26:08.694Z,1.84
2023-01-20T23:29:11.335Z,1.78
2023-01-20T23:32:14.977Z,1.79
2023-01-20T23:35:17.827Z,1.69
2023-01-20T23:38:25.605Z,1.72
2023-01-20T23:41:28.357Z,1.63
2023-01-20T23:44:30.997Z,1.54
2023-01-20T23:47:36.788Z,1.48
2023-01-20T23:50:41.056Z,1.52
2023-01-20T23:53:45.214Z,1.46
2023-01-20T23:56:47.889Z,1.49
2023-01-20T23:59:50.506Z,1.45
